Time;durP1;ratioP1;P1;durP2;ratioP2;P2;SDS_P1;SDS_P2;PMS_P1;PMS_P2;Temp;Humidity;BMP_temperature;BMP_pressure;BME280_temperature;BME280_humidity;BME280_pressure;Samples;Min_cycle;Max_cycle;Signal;HPM_P1;HPM_P2
2023/05/04 00:01:20;;;;;;;;;;;10.40;68.70;;;;;;5089862;28;20011;-62
2023/05/04 00:03:46;;;;;;;;;;;10.30;68.90;;;;;;5089378;28;19974;-62
2023/05/04 00:06:13;;;;;;;;;;;10.30;68.80;;;;;;5090351;28;19924;-62
2023/05/04 00:08:40;;;;;;;;;;;10.20;69.10;;;;;;5089618;28;19928;-61
2023/05/04 00:11:08;;;;;;;;;;;10.20;69.20;;;;;;5088650;28;19928;-66
2023/05/04 00:13:35;;;;;;;;;;;10.10;69.40;;;;;;5085314;28;19928;-66
2023/05/04 00:16:01;;;;;;;;;;;10.10;69.90;;;;;;5087169;28;19931;-69
2023/05/04 00:18:28;;;;;;;;;;;10.10;70.00;;;;;;5085029;28;19951;-70
2023/05/04 00:20:55;;;;;;;;;;;10.00;70.10;;;;;;5090680;28;19941;-79
2023/05/04 00:23:21;;;;;;;;;;;10.00;70.40;;;;;;5088742;28;19924;-83
2023/05/04 00:25:48;;;;;;;;;;;9.90;70.60;;;;;;5091472;28;19932;-81
2023/05/04 00:28:16;;;;;;;;;;;9.90;70.70;;;;;;5091887;28;19928;-82
2023/05/04 00:30:43;;;;;;;;;;;9.80;70.80;;;;;;5071983;28;19924;-67
2023/05/04 00:33:10;;;;;;;;;;;9.70;70.90;;;;;;5090829;28;19932;-66
2023/05/04 00:35:37;;;;;;;;;;;9.70;71.00;;;;;;5090625;28;19924;-61
2023/05/04 00:38:06;;;;;;;;;;;9.70;71.00;;;;;;5087631;28;19930;-62
2023/05/04 00:40:34;;;;;;;;;;;9.70;71.10;;;;;;5089609;28;19986;-69
2023/05/04 00:43:02;;;;;;;;;;;9.70;71.00;;;;;;5088355;28;19986;-69
2023/05/04 00:45:31;;;;;;;;;;;9.70;70.80;;;;;;5085443;28;19932;-61
2023/05/04 00:47:58;;;;;;;;;;;9.70;71.20;;;;;;5066158;28;19956;-61
2023/05/04 00:50:25;;;;;;;;;;;9.70;71.30;;;;;;5086708;28;19924;-62
2023/05/04 00:52:54;;;;;;;;;;;9.50;71.70;;;;;;5088912;28;19924;-61
2023/05/04 00:55:21;;;;;;;;;;;9.50;71.70;;;;;;5070497;28;19938;-65
2023/05/04 00:57:48;;;;;;;;;;;9.50;71.80;;;;;;5090438;28;19935;-63
2023/05/04 01:00:16;;;;;;;;;;;9.50;71.60;;;;;;5070308;28;19943;-62
2023/05/04 01:02:44;;;;;;;;;;;9.60;71.20;;;;;;5085963;28;20039;-59
2023/05/04 01:05:12;;;;;;;;;;;9.60;71.20;;;;;;5083822;28;19963;-62
2023/05/04 01:07:43;;;;;;;;;;;9.60;71.20;;;;;;5090864;28;19947;-67
2023/05/04 01:10:11;;;;;;;;;;;9.50;71.30;;;;;;5075726;28;20367;-67
2023/05/04 01:12:38;;;;;;;;;;;9.50;71.40;;;;;;5077201;28;19928;-63
2023/05/04 01:15:06;;;;;;;;;;;9.40;71.60;;;;;;5074916;28;20355;-61
2023/05/04 01:17:32;;;;;;;;;;;9.40;71.70;;;;;;5091094;28;19924;-62
2023/05/04 01:20:01;;;;;;;;;;;9.40;71.80;;;;;;5092616;28;19967;-62
2023/05/04 01:22:29;;;;;;;;;;;9.30;72.00;;;;;;5078298;28;20013;-61
2023/05/04 01:24:56;;;;;;;;;;;9.20;72.10;;;;;;5094835;28;19985;-61
2023/05/04 01:27:24;;;;;;;;;;;9.20;72.10;;;;;;5091892;28;20014;-69
2023/05/04 01:29:54;;;;;;;;;;;9.20;72.20;;;;;;5077364;28;19932;-69
2023/05/04 01:32:22;;;;;;;;;;;9.20;72.30;;;;;;5077502;28;19924;-69
2023/05/04 01:34:49;;;;;;;;;;;9.10;72.40;;;;;;5076837;28;20014;-69
2023/05/04 01:37:17;;;;;;;;;;;9.10;72.50;;;;;;5094897;28;19924;-62
2023/05/04 01:39:46;;;;;;;;;;;9.10;72.50;;;;;;5094135;28;19928;-62
2023/05/04 01:42:12;;;;;;;;;;;9.10;72.50;;;;;;5096254;28;19978;-67
2023/05/04 01:44:39;;;;;;;;;;;9.10;72.30;;;;;;5093448;28;19927;-67
2023/05/04 01:47:06;;;;;;;;;;;9.10;72.40;;;;;;5091622;28;20023;-68
2023/05/04 01:49:33;;;;;;;;;;;9.00;72.50;;;;;;5094964;28;19931;-68
2023/05/04 01:52:00;;;;;;;;;;;9.00;72.70;;;;;;5073235;28;20781;-62
2023/05/04 01:54:26;;;;;;;;;;;9.00;72.70;;;;;;5075131;28;20924;-63
2023/05/04 01:56:55;;;;;;;;;;;9.00;72.70;;;;;;5092159;28;19928;-61
2023/05/04 01:59:21;;;;;;;;;;;9.00;72.40;;;;;;5078203;28;19942;-62
2023/05/04 02:01:49;;;;;;;;;;;9.00;72.20;;;;;;5070592;28;19924;-68
2023/05/04 02:04:16;;;;;;;;;;;9.00;72.30;;;;;;5094033;28;19976;-68
2023/05/04 02:06:43;;;;;;;;;;;9.00;72.10;;;;;;5075400;28;19928;-70
2023/05/04 02:09:09;;;;;;;;;;;9.00;72.10;;;;;;5073946;28;19928;-70
2023/05/04 02:11:36;;;;;;;;;;;8.90;72.20;;;;;;5075347;28;19981;-62
2023/05/04 02:14:04;;;;;;;;;;;8.90;72.50;;;;;;5087353;28;19928;-62
2023/05/04 02:16:31;;;;;;;;;;;8.80;72.70;;;;;;5093338;28;19938;-66
2023/05/04 02:18:58;;;;;;;;;;;8.90;72.50;;;;;;5091112;28;19943;-65
2023/05/04 02:21:25;;;;;;;;;;;8.80;72.60;;;;;;5088381;28;19924;-62
2023/05/04 02:23:52;;;;;;;;;;;8.80;72.60;;;;;;5073636;28;20394;-60
2023/05/04 02:26:18;;;;;;;;;;;8.70;72.70;;;;;;5071264;28;19934;-62
2023/05/04 02:28:45;;;;;;;;;;;8.70;72.80;;;;;;5069542;28;19928;-61
2023/05/04 02:31:13;;;;;;;;;;;8.70;72.90;;;;;;5089795;28;20046;-69
2023/05/04 02:33:40;;;;;;;;;;;8.70;72.80;;;;;;5088977;28;20298;-70
2023/05/04 02:36:08;;;;;;;;;;;8.70;72.80;;;;;;5091285;28;19925;-88
2023/05/04 02:38:35;;;;;;;;;;;8.60;73.00;;;;;;5082466;28;19963;-89
2023/05/04 02:41:03;;;;;;;;;;;8.60;73.10;;;;;;5098816;28;19977;-62
2023/05/04 02:43:30;;;;;;;;;;;8.50;73.30;;;;;;5071968;28;20264;-62
2023/05/04 02:45:57;;;;;;;;;;;8.50;73.40;;;;;;5067374;28;19925;-68
2023/05/04 02:48:25;;;;;;;;;;;8.50;73.40;;;;;;5069792;28;19924;-68
2023/05/04 02:50:53;;;;;;;;;;;8.40;73.40;;;;;;5086317;28;19931;-65
2023/05/04 02:53:19;;;;;;;;;;;8.40;73.40;;;;;;5073853;28;19936;-65
2023/05/04 02:55:46;;;;;;;;;;;8.40;73.40;;;;;;5071700;28;20387;-62
2023/05/04 02:58:13;;;;;;;;;;;8.50;73.30;;;;;;5088675;28;19934;-61
2023/05/04 03:00:40;;;;;;;;;;;8.50;73.30;;;;;;5090515;28;19998;-68
2023/05/04 03:03:07;;;;;;;;;;;8.40;73.40;;;;;;5088725;28;19958;-67
2023/05/04 03:05:35;;;;;;;;;;;8.40;73.50;;;;;;5072358;28;19931;-72
2023/05/04 03:08:03;;;;;;;;;;;8.40;73.60;;;;;;5089376;28;21402;-70
2023/05/04 03:10:30;;;;;;;;;;;8.30;73.90;;;;;;5090614;28;19978;-65
2023/05/04 03:13:00;;;;;;;;;;;8.30;74.00;;;;;;5088894;28;19934;-65
2023/05/04 03:15:27;;;;;;;;;;;8.40;73.70;;;;;;5071059;28;19934;-70
2023/05/04 03:17:54;;;;;;;;;;;8.40;73.50;;;;;;5088437;28;19968;-69
2023/05/04 03:20:21;;;;;;;;;;;8.40;73.60;;;;;;5070518;28;20892;-70
2023/05/04 03:22:49;;;;;;;;;;;8.30;73.60;;;;;;5084967;28;20013;-70
2023/05/04 03:25:16;;;;;;;;;;;8.20;74.00;;;;;;5071689;28;19935;-69
2023/05/04 03:27:42;;;;;;;;;;;8.20;74.10;;;;;;5082501;28;19932;-70
2023/05/04 03:30:10;;;;;;;;;;;8.20;74.10;;;;;;5089302;28;19976;-69
2023/05/04 03:32:38;;;;;;;;;;;8.20;74.00;;;;;;5095108;28;19981;-88
2023/05/04 03:35:05;;;;;;;;;;;8.20;74.20;;;;;;5093929;28;19930;-88
2023/05/04 03:37:32;;;;;;;;;;;8.20;74.30;;;;;;5097520;28;19943;-88
2023/05/04 03:40:01;;;;;;;;;;;8.10;74.20;;;;;;5096482;28;19928;-88
2023/05/04 03:42:27;;;;;;;;;;;8.10;74.40;;;;;;5069939;28;20039;-69
2023/05/04 03:44:54;;;;;;;;;;;8.00;74.50;;;;;;5069653;28;19932;-68
2023/05/04 03:47:21;;;;;;;;;;;8.00;74.70;;;;;;5068651;28;19971;-62
2023/05/04 03:49:48;;;;;;;;;;;8.00;74.80;;;;;;5092113;28;19932;-62
2023/05/04 03:52:15;;;;;;;;;;;8.00;74.70;;;;;;5071264;28;20420;-68
2023/05/04 03:54:41;;;;;;;;;;;8.00;74.70;;;;;;5071831;28;19928;-68
2023/05/04 03:57:10;;;;;;;;;;;8.00;74.60;;;;;;5073454;28;19951;-70
2023/05/04 03:59:37;;;;;;;;;;;7.90;74.70;;;;;;5083087;28;19935;-69
2023/05/04 04:02:05;;;;;;;;;;;7.90;74.60;;;;;;5087789;28;19959;-65
2023/05/04 04:04:32;;;;;;;;;;;7.90;74.90;;;;;;5087840;28;19970;-66
2023/05/04 04:06:59;;;;;;;;;;;7.90;74.90;;;;;;5068703;28;19992;-70
2023/05/04 04:09:27;;;;;;;;;;;7.90;75.00;;;;;;5069972;28;19924;-70
2023/05/04 04:11:54;;;;;;;;;;;7.80;75.30;;;;;;5083668;28;19932;-68
2023/05/04 04:14:22;;;;;;;;;;;7.80;75.20;;;;;;5069703;28;20437;-67
2023/05/04 04:16:49;;;;;;;;;;;7.90;75.10;;;;;;5088661;28;19931;-68
2023/05/04 04:19:15;;;;;;;;;;;8.00;74.70;;;;;;5088648;28;20378;-69
2023/05/04 04:21:42;;;;;;;;;;;8.10;74.30;;;;;;5087901;28;19928;-68
2023/05/04 04:24:09;;;;;;;;;;;8.10;74.30;;;;;;5085732;28;20401;-69
2023/05/04 04:26:36;;;;;;;;;;;8.10;74.10;;;;;;5087437;28;19962;-69
2023/05/04 04:29:03;;;;;;;;;;;8.10;74.40;;;;;;5085230;28;20193;-69
2023/05/04 04:31:32;;;;;;;;;;;8.10;74.40;;;;;;5063924;28;19935;-67
2023/05/04 04:33:59;;;;;;;;;;;8.10;74.50;;;;;;5087877;28;20068;-67
2023/05/04 04:36:26;;;;;;;;;;;8.00;74.80;;;;;;5072300;28;19938;-62
2023/05/04 04:38:53;;;;;;;;;;;8.10;74.80;;;;;;5085531;28;20070;-61
2023/05/04 04:41:19;;;;;;;;;;;8.10;74.70;;;;;;5092425;28;20011;-85
2023/05/04 04:43:46;;;;;;;;;;;8.10;74.70;;;;;;5091948;28;19930;-86
2023/05/04 04:46:14;;;;;;;;;;;8.10;74.40;;;;;;5092369;28;19935;-85
2023/05/04 04:48:42;;;;;;;;;;;8.10;74.40;;;;;;5093630;28;19932;-85
2023/05/04 04:51:12;;;;;;;;;;;8.20;74.40;;;;;;5095182;28;19924;-87
2023/05/04 04:53:39;;;;;;;;;;;8.20;74.60;;;;;;5092327;28;19932;-83
2023/05/04 04:56:06;;;;;;;;;;;8.20;74.70;;;;;;5071880;28;19977;-61
2023/05/04 04:58:33;;;;;;;;;;;8.20;74.40;;;;;;5088075;28;19928;-62
2023/05/04 05:01:01;;;;;;;;;;;8.30;74.30;;;;;;5084682;28;19928;-70
2023/05/04 05:03:28;;;;;;;;;;;8.30;74.30;;;;;;5090519;28;19928;-69
2023/05/04 05:05:56;;;;;;;;;;;8.30;74.20;;;;;;5085647;28;19924;-85
2023/05/04 05:08:23;;;;;;;;;;;8.30;74.40;;;;;;5091989;28;19931;-84
2023/05/04 05:10:49;;;;;;;;;;;8.30;74.20;;;;;;5093963;28;19927;-66
2023/05/04 05:13:16;;;;;;;;;;;8.40;74.10;;;;;;5083901;28;19924;-65
2023/05/04 05:15:43;;;;;;;;;;;8.40;74.30;;;;;;5087859;28;19928;-66
2023/05/04 05:18:09;;;;;;;;;;;8.40;74.30;;;;;;5086053;28;20279;-66
2023/05/04 05:20:37;;;;;;;;;;;8.40;74.10;;;;;;5089679;28;19936;-65
2023/05/04 05:23:05;;;;;;;;;;;8.50;74.40;;;;;;5087864;28;19928;-67
2023/05/04 05:25:32;;;;;;;;;;;8.50;74.40;;;;;;5090108;28;19931;-61
2023/05/04 05:27:59;;;;;;;;;;;8.50;74.30;;;;;;5084798;28;19924;-62
2023/05/04 05:30:27;;;;;;;;;;;8.60;74.10;;;;;;5088099;28;19928;-63
2023/05/04 05:32:53;;;;;;;;;;;8.60;74.30;;;;;;5087748;28;19928;-63
2023/05/04 05:35:20;;;;;;;;;;;8.60;74.10;;;;;;5086492;28;19928;-63
2023/05/04 05:37:47;;;;;;;;;;;8.70;74.50;;;;;;5088557;28;20023;-62
2023/05/04 05:40:15;;;;;;;;;;;8.70;74.60;;;;;;5087044;28;20382;-62
2023/05/04 05:42:42;;;;;;;;;;;8.70;74.20;;;;;;5084342;28;19924;-67
2023/05/04 05:45:09;;;;;;;;;;;8.80;74.00;;;;;;5086519;28;20402;-67
2023/05/04 05:47:36;;;;;;;;;;;8.90;74.00;;;;;;5086556;28;20326;-69
2023/05/04 05:50:03;;;;;;;;;;;8.90;73.80;;;;;;5088189;28;20589;-68
2023/05/04 05:52:30;;;;;;;;;;;8.90;73.90;;;;;;5089979;28;19951;-71
2023/05/04 05:54:57;;;;;;;;;;;9.00;73.70;;;;;;5089938;28;19928;-70
2023/05/04 05:57:25;;;;;;;;;;;9.10;73.30;;;;;;5094561;28;19924;-85
2023/05/04 05:59:51;;;;;;;;;;;9.10;73.80;;;;;;5093827;28;19943;-76
2023/05/04 06:02:18;;;;;;;;;;;9.20;73.50;;;;;;5092893;28;19932;-71
2023/05/04 06:04:45;;;;;;;;;;;9.20;73.00;;;;;;5090710;28;19930;-72
2023/05/04 06:07:13;;;;;;;;;;;9.20;73.10;;;;;;5092519;28;20347;-67
2023/05/04 06:09:40;;;;;;;;;;;9.20;72.90;;;;;;5089473;28;19928;-66
2023/05/04 06:12:12;;;;;;;;;;;9.40;73.50;;;;;;5087853;28;20033;-67
2023/05/04 06:14:40;;;;;;;;;;;9.50;73.40;;;;;;5088683;28;20398;-66
2023/05/04 06:17:07;;;;;;;;;;;9.50;73.20;;;;;;5092233;28;19924;-62
2023/05/04 06:19:34;;;;;;;;;;;9.70;73.00;;;;;;5091290;28;20158;-60
2023/05/04 06:22:00;;;;;;;;;;;9.70;72.70;;;;;;5092674;28;20382;-68
2023/05/04 06:24:28;;;;;;;;;;;9.80;72.50;;;;;;5092310;28;19939;-67
2023/05/04 06:26:55;;;;;;;;;;;9.90;72.50;;;;;;5088966;28;20025;-64
2023/05/04 06:29:22;;;;;;;;;;;10.00;72.30;;;;;;5091315;28;19930;-64
2023/05/04 06:31:50;;;;;;;;;;;10.10;72.30;;;;;;5089747;28;19932;-69
2023/05/04 06:34:17;;;;;;;;;;;10.20;72.30;;;;;;5091118;28;19930;-67
2023/05/04 06:36:44;;;;;;;;;;;10.30;72.00;;;;;;5089823;28;19930;-72
2023/05/04 06:39:10;;;;;;;;;;;10.40;72.10;;;;;;5090975;28;19932;-73
2023/05/04 06:41:37;;;;;;;;;;;10.50;72.00;;;;;;5090393;28;19928;-68
2023/05/04 06:44:04;;;;;;;;;;;10.60;71.50;;;;;;5088060;28;19932;-66
2023/05/04 06:46:31;;;;;;;;;;;10.70;71.60;;;;;;5090195;28;19950;-67
2023/05/04 06:48:59;;;;;;;;;;;10.70;71.40;;;;;;5089918;28;19924;-67
2023/05/04 06:51:26;;;;;;;;;;;10.90;70.80;;;;;;5091436;28;19935;-66
2023/05/04 06:53:53;;;;;;;;;;;11.10;70.40;;;;;;5092007;28;19935;-64
2023/05/04 06:56:23;;;;;;;;;;;11.10;70.70;;;;;;5089065;28;19928;-69
2023/05/04 06:58:50;;;;;;;;;;;11.20;71.10;;;;;;5090102;28;20345;-67
2023/05/04 07:01:16;;;;;;;;;;;11.30;70.70;;;;;;5068828;28;19925;-73
2023/05/04 07:03:43;;;;;;;;;;;11.40;70.70;;;;;;5091065;28;19981;-73
2023/05/04 07:06:11;;;;;;;;;;;11.50;71.00;;;;;;5089289;28;19924;-68
2023/05/04 07:08:38;;;;;;;;;;;11.70;70.60;;;;;;5087897;28;20702;-68
2023/05/04 07:11:05;;;;;;;;;;;11.80;70.50;;;;;;5090549;28;19939;-63
2023/05/04 07:13:32;;;;;;;;;;;11.90;70.30;;;;;;5088869;28;20330;-62
2023/05/04 07:15:59;;;;;;;;;;;12.00;69.70;;;;;;5090225;28;19979;-73
2023/05/04 07:18:25;;;;;;;;;;;12.20;69.70;;;;;;5092141;28;19950;-71
2023/05/04 07:20:52;;;;;;;;;;;12.30;69.10;;;;;;5089943;28;20379;-77
2023/05/04 07:23:20;;;;;;;;;;;12.40;68.40;;;;;;5088786;28;19934;-77
2023/05/04 07:25:47;;;;;;;;;;;12.50;68.20;;;;;;5089815;28;19928;-67
2023/05/04 07:28:15;;;;;;;;;;;12.70;67.70;;;;;;5090007;28;19950;-68
2023/05/04 07:30:42;;;;;;;;;;;12.80;67.60;;;;;;5088837;28;19924;-73
2023/05/04 07:33:08;;;;;;;;;;;13.00;67.30;;;;;;5088453;28;20367;-74
2023/05/04 07:35:35;;;;;;;;;;;13.20;67.00;;;;;;5089414;28;19928;-66
2023/05/04 07:38:02;;;;;;;;;;;13.40;66.40;;;;;;5070117;28;19932;-67
2023/05/04 07:40:30;;;;;;;;;;;13.50;65.60;;;;;;5086336;28;19932;-64
2023/05/04 07:42:57;;;;;;;;;;;13.70;64.70;;;;;;5068595;28;20398;-62
2023/05/04 07:45:24;;;;;;;;;;;13.90;65.20;;;;;;5090571;28;19977;-63
2023/05/04 07:47:51;;;;;;;;;;;14.10;64.40;;;;;;5090354;28;19934;-65
2023/05/04 07:50:18;;;;;;;;;;;14.30;63.30;;;;;;5082196;28;20361;-63
2023/05/04 07:52:46;;;;;;;;;;;14.60;63.40;;;;;;5090962;28;19928;-77
2023/05/04 07:55:13;;;;;;;;;;;14.70;63.00;;;;;;5092583;28;19929;-77
2023/05/04 07:57:41;;;;;;;;;;;14.90;62.70;;;;;;5090050;28;19924;-63
2023/05/04 08:00:10;;;;;;;;;;;15.00;61.70;;;;;;5088739;28;19946;-64
2023/05/04 08:02:45;;;;;;;;;;;15.10;61.60;;;;;;5090051;28;20019;-65
2023/05/04 08:05:12;;;;;;;;;;;15.30;61.60;;;;;;5090175;28;19990;-72
2023/05/04 08:07:39;;;;;;;;;;;15.40;60.80;;;;;;5086383;28;20018;-71
2023/05/04 08:10:08;;;;;;;;;;;15.60;60.10;;;;;;5090673;28;19924;-73
2023/05/04 08:12:35;;;;;;;;;;;15.70;60.30;;;;;;5086698;28;19925;-73
2023/05/04 08:15:04;;;;;;;;;;;15.90;59.30;;;;;;5089249;28;20455;-73
2023/05/04 08:17:31;;;;;;;;;;;15.90;59.50;;;;;;5087151;28;19931;-72
2023/05/04 08:19:58;;;;;;;;;;;16.10;59.00;;;;;;5084359;28;19967;-74
2023/05/04 08:22:25;;;;;;;;;;;16.10;58.90;;;;;;5087283;28;20026;-73
2023/05/04 08:25:08;;;;;;;;;;;16.30;58.60;;;;;;5072417;28;20025;-76
2023/05/04 08:27:35;;;;;;;;;;;16.40;58.30;;;;;;5088421;28;19932;-72
2023/05/04 08:30:01;;;;;;;;;;;16.50;58.40;;;;;;5087322;28;19932;-72
2023/05/04 08:32:31;;;;;;;;;;;16.60;58.90;;;;;;5085400;28;19937;-68
2023/05/04 08:34:57;;;;;;;;;;;16.60;57.00;;;;;;5089838;28;20013;-66
2023/05/04 08:37:24;;;;;;;;;;;16.80;57.80;;;;;;5083114;28;19931;-67
2023/05/04 08:39:51;;;;;;;;;;;16.90;56.80;;;;;;5088196;28;19941;-66
2023/05/04 08:42:26;;;;;;;;;;;17.00;57.50;;;;;;5086353;28;19935;-67
2023/05/04 08:44:53;;;;;;;;;;;17.10;56.80;;;;;;5088000;28;19925;-66
2023/05/04 08:47:19;;;;;;;;;;;17.20;57.30;;;;;;5089632;28;19977;-67
2023/05/04 08:49:48;;;;;;;;;;;17.40;56.50;;;;;;5087072;28;20022;-66
2023/05/04 08:52:15;;;;;;;;;;;17.60;56.00;;;;;;5087169;28;19927;-67
2023/05/04 08:54:43;;;;;;;;;;;17.70;56.50;;;;;;5088581;28;19924;-67
2023/05/04 08:57:10;;;;;;;;;;;17.80;55.00;;;;;;5088706;28;19935;-68
2023/05/04 08:59:37;;;;;;;;;;;18.00;55.80;;;;;;5088757;28;19928;-67
2023/05/04 09:02:04;;;;;;;;;;;18.10;54.90;;;;;;5085940;28;19935;-68
2023/05/04 09:04:31;;;;;;;;;;;18.20;55.30;;;;;;5086493;28;19994;-67
2023/05/04 09:07:00;;;;;;;;;;;18.40;54.40;;;;;;5088282;28;20540;-66
2023/05/04 09:09:28;;;;;;;;;;;18.50;54.40;;;;;;5084984;28;19977;-65
2023/05/04 09:11:54;;;;;;;;;;;18.60;53.60;;;;;;5088169;28;19924;-67
2023/05/04 09:14:21;;;;;;;;;;;18.70;53.30;;;;;;5087632;28;19928;-67
2023/05/04 09:16:48;;;;;;;;;;;18.90;53.40;;;;;;5085676;28;20035;-67
2023/05/04 09:19:18;;;;;;;;;;;19.00;53.50;;;;;;5088189;28;19931;-68
2023/05/04 09:21:45;;;;;;;;;;;19.10;53.10;;;;;;5086078;28;19932;-68
2023/05/04 09:24:13;;;;;;;;;;;19.10;52.70;;;;;;5091046;28;19931;-66
2023/05/04 09:26:40;;;;;;;;;;;19.10;52.50;;;;;;5089094;28;19924;-67
2023/05/04 09:29:10;;;;;;;;;;;19.10;52.60;;;;;;5091816;28;19924;-68
2023/05/04 09:31:42;;;;;;;;;;;19.10;52.10;;;;;;5089477;28;19932;-67
2023/05/04 09:34:09;;;;;;;;;;;19.20;51.40;;;;;;5091289;28;19928;-67
2023/05/04 09:36:36;;;;;;;;;;;19.30;51.30;;;;;;5092103;28;19989;-68
2023/05/04 09:39:09;;;;;;;;;;;19.30;51.30;;;;;;5092446;28;19928;-67
2023/05/04 09:41:37;;;;;;;;;;;19.50;51.40;;;;;;5091110;28;19924;-67
2023/05/04 09:44:04;;;;;;;;;;;19.50;51.20;;;;;;5091772;28;19935;-67
2023/05/04 09:46:31;;;;;;;;;;;19.70;50.80;;;;;;5086939;28;20403;-68
2023/05/04 09:48:59;;;;;;;;;;;19.70;50.20;;;;;;5092021;28;19955;-67
2023/05/04 09:51:27;;;;;;;;;;;19.80;50.20;;;;;;5092116;28;19924;-63
2023/05/04 09:53:54;;;;;;;;;;;19.90;50.20;;;;;;5090827;28;19928;-63
2023/05/04 09:56:27;;;;;;;;;;;19.90;50.00;;;;;;5090769;28;19924;-61
2023/05/04 09:58:58;;;;;;;;;;;19.90;50.10;;;;;;5091171;28;19932;-62
2023/05/04 10:01:26;;;;;;;;;;;20.00;50.10;;;;;;5090171;28;19931;-62
2023/05/04 10:03:53;;;;;;;;;;;20.10;50.20;;;;;;5089189;28;19934;-62
2023/05/04 10:06:20;;;;;;;;;;;20.10;50.60;;;;;;5091586;28;19924;-59
2023/05/04 10:08:49;;;;;;;;;;;20.20;50.00;;;;;;5089631;28;19928;-62
2023/05/04 10:11:17;;;;;;;;;;;20.20;49.60;;;;;;5089785;28;19943;-63
2023/05/04 10:13:44;;;;;;;;;;;20.30;49.00;;;;;;5089242;28;20007;-63
2023/05/04 10:16:23;;;;;;;;;;;20.30;48.50;;;;;;5089337;28;19932;-63
2023/05/04 10:19:01;;;;;;;;;;;20.40;47.30;;;;;;5088595;28;19947;-63
2023/05/04 10:21:30;;;;;;;;;;;20.50;47.00;;;;;;5091099;28;19924;-63
2023/05/04 10:24:06;;;;;;;;;;;20.60;47.90;;;;;;5091066;28;19924;-62
2023/05/04 10:26:40;;;;;;;;;;;20.60;48.30;;;;;;5092989;28;19932;-63
2023/05/04 10:29:12;;;;;;;;;;;20.70;48.50;;;;;;5073211;28;19952;-62
2023/05/04 10:31:41;;;;;;;;;;;20.80;48.80;;;;;;5091747;28;19932;-63
2023/05/04 10:34:08;;;;;;;;;;;20.80;48.50;;;;;;5090487;28;19928;-63
2023/05/04 10:36:35;;;;;;;;;;;20.90;49.10;;;;;;5090673;28;19928;-62
2023/05/04 10:39:02;;;;;;;;;;;20.90;47.50;;;;;;5090266;28;19952;-63
2023/05/04 10:41:29;;;;;;;;;;;21.10;47.40;;;;;;5090657;28;20367;-62
2023/05/04 10:44:02;;;;;;;;;;;21.10;47.00;;;;;;5090711;28;19924;-62
2023/05/04 10:46:29;;;;;;;;;;;21.20;47.40;;;;;;5086567;28;19957;-63
2023/05/04 10:48:57;;;;;;;;;;;21.20;47.30;;;;;;5086891;28;19939;-63
2023/05/04 10:51:24;;;;;;;;;;;21.30;47.20;;;;;;5091877;28;20397;-61
2023/05/04 10:53:51;;;;;;;;;;;21.50;45.80;;;;;;5087320;28;19931;-63
2023/05/04 10:56:22;;;;;;;;;;;21.60;44.80;;;;;;5090844;28;19924;-67
2023/05/04 10:58:49;;;;;;;;;;;21.60;44.50;;;;;;5090660;28;19967;-68
2023/05/04 11:01:16;;;;;;;;;;;21.60;44.10;;;;;;5089754;28;19993;-68
2023/05/04 11:03:43;;;;;;;;;;;21.50;45.00;;;;;;5091403;28;19924;-69
2023/05/04 11:06:17;;;;;;;;;;;21.60;44.80;;;;;;5092727;28;19924;-70
2023/05/04 11:08:49;;;;;;;;;;;21.60;44.60;;;;;;5091240;28;20006;-69
2023/05/04 11:11:16;;;;;;;;;;;21.60;44.40;;;;;;5089297;28;19924;-65
2023/05/04 11:13:45;;;;;;;;;;;21.70;45.10;;;;;;5092129;28;20023;-65
2023/05/04 11:16:12;;;;;;;;;;;21.70;44.00;;;;;;5091583;28;19989;-78
2023/05/04 11:18:39;;;;;;;;;;;21.80;43.90;;;;;;5096017;28;19942;-77
2023/05/04 11:21:07;;;;;;;;;;;21.90;43.90;;;;;;5093808;28;19928;-63
2023/05/04 11:23:35;;;;;;;;;;;22.00;45.60;;;;;;5091272;28;20371;-64
2023/05/04 11:26:06;;;;;;;;;;;21.90;45.00;;;;;;5090978;28;19935;-68
2023/05/04 11:28:33;;;;;;;;;;;22.00;45.10;;;;;;5087674;28;19928;-68
2023/05/04 11:31:00;;;;;;;;;;;22.00;44.90;;;;;;5083823;28;19975;-73
2023/05/04 11:33:26;;;;;;;;;;;22.00;44.50;;;;;;5088962;28;20311;-74
2023/05/04 11:35:58;;;;;;;;;;;21.90;43.10;;;;;;5072941;28;19928;-68
2023/05/04 11:38:25;;;;;;;;;;;22.00;42.50;;;;;;5089593;28;19924;-68
2023/05/04 11:40:53;;;;;;;;;;;22.00;43.70;;;;;;5091255;28;19968;-76
2023/05/04 11:43:20;;;;;;;;;;;22.00;44.60;;;;;;5091223;28;19924;-75
2023/05/04 11:45:48;;;;;;;;;;;22.10;42.60;;;;;;5089393;28;19935;-67
2023/05/04 11:48:15;;;;;;;;;;;22.10;43.80;;;;;;5088271;28;19924;-67
2023/05/04 11:50:42;;;;;;;;;;;22.10;43.70;;;;;;5070518;28;20301;-67
2023/05/04 11:53:09;;;;;;;;;;;22.10;44.60;;;;;;5084540;28;19939;-67
2023/05/04 11:55:36;;;;;;;;;;;22.10;44.70;;;;;;5084405;28;19932;-67
2023/05/04 11:58:06;;;;;;;;;;;22.10;43.70;;;;;;5085536;28;19924;-66
2023/05/04 12:00:39;;;;;;;;;;;22.10;44.50;;;;;;5084523;28;19932;-68
2023/05/04 12:03:06;;;;;;;;;;;22.10;43.00;;;;;;5086162;28;19924;-67
2023/05/04 12:05:34;;;;;;;;;;;22.20;43.30;;;;;;5088015;28;19932;-73
2023/05/04 12:08:02;;;;;;;;;;;22.20;44.60;;;;;;5090809;28;20306;-73
2023/05/04 12:10:30;;;;;;;;;;;22.30;45.30;;;;;;5085369;28;19932;-69
2023/05/04 12:12:56;;;;;;;;;;;22.30;43.60;;;;;;5085638;28;19973;-68
2023/05/04 12:15:32;;;;;;;;;;;22.30;44.70;;;;;;5090211;28;19924;-77
2023/05/04 12:17:58;;;;;;;;;;;22.30;42.80;;;;;;5090644;28;19928;-76
2023/05/04 12:20:27;;;;;;;;;;;22.30;41.70;;;;;;5091498;28;19930;-69
2023/05/04 12:22:54;;;;;;;;;;;22.30;41.80;;;;;;5087584;28;20006;-68
2023/05/04 12:25:21;;;;;;;;;;;22.30;43.60;;;;;;5088018;28;19943;-65
2023/05/04 12:27:47;;;;;;;;;;;22.30;43.80;;;;;;5090526;28;19924;-64
2023/05/04 12:30:14;;;;;;;;;;;22.30;42.50;;;;;;5090145;28;19935;-64
2023/05/04 12:32:43;;;;;;;;;;;22.30;44.10;;;;;;5089574;28;19939;-65
2023/05/04 12:35:09;;;;;;;;;;;22.30;42.70;;;;;;5089548;28;20011;-64
2023/05/04 12:37:36;;;;;;;;;;;22.30;42.90;;;;;;5089483;28;19924;-64
2023/05/04 12:40:03;;;;;;;;;;;22.30;41.80;;;;;;5089500;28;19932;-64
2023/05/04 12:42:30;;;;;;;;;;;22.30;42.90;;;;;;5091158;28;19959;-65
2023/05/04 12:44:57;;;;;;;;;;;22.30;42.80;;;;;;5089694;28;19931;-65
2023/05/04 12:47:24;;;;;;;;;;;22.30;43.40;;;;;;5088303;28;19943;-64
2023/05/04 12:49:54;;;;;;;;;;;22.30;42.80;;;;;;5089474;28;19931;-65
2023/05/04 12:52:21;;;;;;;;;;;22.30;42.40;;;;;;5089717;28;20003;-63
2023/05/04 12:54:48;;;;;;;;;;;22.30;44.70;;;;;;5089658;28;19999;-65
2023/05/04 12:57:15;;;;;;;;;;;22.20;41.80;;;;;;5090465;28;19934;-68
2023/05/04 12:59:42;;;;;;;;;;;22.20;44.60;;;;;;5091162;28;19924;-69
2023/05/04 13:02:09;;;;;;;;;;;22.20;41.30;;;;;;5091610;28;19933;-77
2023/05/04 13:04:36;;;;;;;;;;;22.30;42.30;;;;;;5071163;28;19928;-78
2023/05/04 13:07:04;;;;;;;;;;;22.30;42.20;;;;;;5087532;28;19932;-69
2023/05/04 13:09:31;;;;;;;;;;;22.30;41.70;;;;;;5090106;28;20420;-70
2023/05/04 13:11:58;;;;;;;;;;;22.20;41.80;;;;;;5088389;28;20340;-68
2023/05/04 13:14:24;;;;;;;;;;;22.20;44.60;;;;;;5087155;28;19924;-71
2023/05/04 13:16:52;;;;;;;;;;;22.20;42.40;;;;;;5089236;28;19950;-69
2023/05/04 13:19:20;;;;;;;;;;;22.10;41.50;;;;;;5071378;28;20339;-69
2023/05/04 13:21:47;;;;;;;;;;;22.10;42.30;;;;;;5082888;28;19924;-70
2023/05/04 13:24:15;;;;;;;;;;;22.00;41.90;;;;;;5084331;28;20361;-70
2023/05/04 13:26:42;;;;;;;;;;;22.00;41.80;;;;;;5082691;28;19928;-69
2023/05/04 13:29:09;;;;;;;;;;;22.00;42.30;;;;;;5087983;28;19928;-69
2023/05/04 13:31:36;;;;;;;;;;;21.90;42.80;;;;;;5070090;28;19946;-75
2023/05/04 13:34:03;;;;;;;;;;;22.00;42.70;;;;;;5090899;28;19932;-75
2023/05/04 13:36:30;;;;;;;;;;;22.00;41.60;;;;;;5087064;28;21386;-67
2023/05/04 13:38:56;;;;;;;;;;;22.00;42.70;;;;;;5086002;28;20439;-68
2023/05/04 13:41:25;;;;;;;;;;;22.00;41.40;;;;;;5088029;28;19924;-64
2023/05/04 13:43:52;;;;;;;;;;;21.90;43.30;;;;;;5086410;28;19924;-65
2023/05/04 13:46:19;;;;;;;;;;;21.80;44.80;;;;;;5089060;28;20399;-69
2023/05/04 13:48:48;;;;;;;;;;;21.70;43.00;;;;;;5087962;28;19927;-67
2023/05/04 13:51:15;;;;;;;;;;;21.60;43.40;;;;;;5085336;28;19928;-66
2023/05/04 13:53:42;;;;;;;;;;;21.60;45.20;;;;;;5085187;28;20378;-66
2023/05/04 13:56:09;;;;;;;;;;;21.60;43.80;;;;;;5083143;28;19963;-63
2023/05/04 13:58:37;;;;;;;;;;;21.60;44.70;;;;;;5085816;28;20011;-62
2023/05/04 14:01:04;;;;;;;;;;;21.60;43.30;;;;;;5086748;28;19951;-70
2023/05/04 14:03:31;;;;;;;;;;;21.70;42.50;;;;;;5082394;28;19924;-68
2023/05/04 14:05:58;;;;;;;;;;;21.70;42.00;;;;;;5086571;28;19932;-64
2023/05/04 14:08:24;;;;;;;;;;;21.80;41.60;;;;;;5089678;28;19927;-65
2023/05/04 14:10:51;;;;;;;;;;;21.70;41.20;;;;;;5087750;28;20022;-69
2023/05/04 14:13:18;;;;;;;;;;;21.70;41.70;;;;;;5086236;28;19924;-70
2023/05/04 14:15:47;;;;;;;;;;;21.60;42.40;;;;;;5087873;28;20005;-70
2023/05/04 14:18:13;;;;;;;;;;;21.60;41.80;;;;;;5086794;28;19931;-70
2023/05/04 14:20:40;;;;;;;;;;;21.60;41.80;;;;;;5089563;28;20382;-67
2023/05/04 14:23:07;;;;;;;;;;;21.60;41.10;;;;;;5086312;28;20027;-68
2023/05/04 14:25:34;;;;;;;;;;;21.50;41.40;;;;;;5088183;28;19928;-64